Time;durP1;ratioP1;P1;durP2;ratioP2;P2;SDS_P1;SDS_P2;PMS_P1;PMS_P2;Temp;Humidity;BMP_temperature;BMP_pressure;BME280_temperature;BME280_humidity;BME280_pressure;Samples;Min_cycle;Max_cycle;Signal;HPM_P1;HPM_P2
2021/01/30 00:01:45;;;;;;;2.73;1.10;;;;;;;7.69;72.11;95367.28;5081552;28;20420;-68
2021/01/30 00:04:14;;;;;;;4.93;1.33;;;;;;;7.59;71.64;95364.13;5091749;28;20186;-69
2021/01/30 00:06:53;;;;;;;2.73;1.03;;;;;;;8.07;69.73;95361.97;5089350;28;20420;-67
2021/01/30 00:09:20;;;;;;;4.00;1.00;;;;;;;7.86;70.10;95369.72;5087222;28;21153;-67
2021/01/30 00:11:50;;;;;;;1.30;0.80;;;;;;;7.79;70.31;95369.63;5080324;28;20424;-66
2021/01/30 00:14:24;;;;;;;2.60;0.83;;;;;;;7.70;70.71;95366.31;5094061;28;20576;-66
2021/01/30 00:16:50;;;;;;;1.63;0.90;;;;;;;7.45;71.09;95389.22;5092844;28;20423;-67
2021/01/30 00:19:16;;;;;;;1.10;0.90;;;;;;;7.86;69.49;95380.16;5085757;28;20474;-67
2021/01/30 00:21:51;;;;;;;3.77;1.03;;;;;;;7.69;70.34;95380.31;5085119;28;20955;-69
2021/01/30 00:24:17;;;;;;;1.57;1.00;;;;;;;7.83;70.04;95387.34;5085058;28;20427;-68
2021/01/30 00:26:43;;;;;;;3.27;1.03;;;;;;;7.67;71.05;95377.91;5083765;28;20474;-67
2021/01/30 00:29:13;;;;;;;2.33;0.73;;;;;;;7.43;70.99;95389.41;5083648;28;20455;-68
2021/01/30 00:31:38;;;;;;;2.63;0.90;;;;;;;7.62;70.19;95380.25;5085418;28;20195;-66
2021/01/30 00:34:04;;;;;;;4.23;1.20;;;;;;;7.59;70.88;95392.81;5083871;28;20834;-68
2021/01/30 00:36:30;;;;;;;2.40;0.80;;;;;;;7.69;70.02;95377.72;5092806;28;20227;-65
2021/01/30 00:38:55;;;;;;;2.83;0.97;;;;;;;7.44;70.46;95388.38;5093416;28;20202;-66
2021/01/30 00:41:21;;;;;;;3.90;0.93;;;;;;;7.50;70.38;95366.00;5083409;28;20182;-66
2021/01/30 00:43:47;;;;;;;2.47;1.00;;;;;;;7.52;69.51;95370.09;5093020;28;20201;-66
2021/01/30 00:46:13;;;;;;;3.53;1.00;;;;;;;7.30;70.41;95376.97;5091397;28;20186;-68
2021/01/30 00:48:38;;;;;;;3.90;1.00;;;;;;;7.31;70.64;95372.56;5092462;28;20641;-66
2021/01/30 00:51:04;;;;;;;7.10;1.10;;;;;;;7.32;69.86;95371.56;5089653;28;20189;-68
2021/01/30 00:53:30;;;;;;;1.83;0.90;;;;;;;7.62;68.45;95374.22;5086975;28;20178;-68
2021/01/30 00:55:55;;;;;;;2.17;0.90;;;;;;;7.66;69.08;95375.50;5092437;28;20178;-67
2021/01/30 00:58:21;;;;;;;2.47;1.10;;;;;;;7.63;68.64;95371.41;5092754;28;20178;-66
2021/01/30 01:00:47;;;;;;;4.70;1.00;;;;;;;7.60;69.54;95373.59;5093427;28;20190;-66
2021/01/30 01:03:13;;;;;;;2.70;1.10;;;;;;;7.83;68.90;95376.13;5088502;28;20173;-68
2021/01/30 01:05:38;;;;;;;0.90;0.80;;;;;;;7.71;68.75;95373.13;5092716;28;20213;-68
2021/01/30 01:08:04;;;;;;;2.30;1.00;;;;;;;7.41;70.18;95383.53;5084730;28;20205;-66
2021/01/30 01:10:30;;;;;;;2.03;0.80;;;;;;;7.60;69.59;95373.59;5082603;28;20528;-68
2021/01/30 01:12:55;;;;;;;2.90;0.90;;;;;;;7.74;69.44;95377.22;5088950;28;20188;-67
2021/01/30 01:15:22;;;;;;;2.37;0.83;;;;;;;7.78;68.80;95378.44;5087386;28;20178;-67
2021/01/30 01:17:48;;;;;;;1.60;0.80;;;;;;;7.73;68.59;95381.59;5092815;28;20186;-67
2021/01/30 01:20:20;;;;;;;1.70;0.80;;;;;;;7.85;68.43;95384.59;5076115;28;20550;-67
2021/01/30 01:22:46;;;;;;;1.00;0.90;;;;;;;7.92;68.69;95384.69;5075637;28;20983;-66
2021/01/30 01:25:12;;;;;;;1.53;0.80;;;;;;;7.62;69.15;95384.66;5079974;28;20428;-66
2021/01/30 01:27:38;;;;;;;1.57;0.80;;;;;;;7.71;69.08;95380.97;5083077;28;20456;-67
2021/01/30 01:30:07;;;;;;;1.37;0.67;;;;;;;7.72;69.04;95389.63;5083420;28;20453;-65
2021/01/30 01:32:33;;;;;;;2.90;1.10;;;;;;;7.87;69.03;95379.19;5082847;28;20466;-67
2021/01/30 01:34:58;;;;;;;1.33;0.90;;;;;;;7.97;69.03;95377.09;5082179;28;20428;-68
2021/01/30 01:37:24;;;;;;;2.10;0.80;;;;;;;7.88;69.02;95378.19;5082390;28;20177;-66
2021/01/30 01:39:50;;;;;;;2.73;1.00;;;;;;;7.81;68.96;95376.28;5091841;28;20197;-65
2021/01/30 01:42:22;;;;;;;4.40;0.90;;;;;;;7.48;70.77;95383.66;5089715;28;20170;-66
2021/01/30 01:44:49;;;;;;;1.43;0.63;;;;;;;7.65;69.74;95381.69;5093248;28;20197;-65
2021/01/30 01:47:21;;;;;;;0.90;0.70;;;;;;;7.84;69.73;95378.53;5095603;28;20963;-67
2021/01/30 01:49:47;;;;;;;1.10;0.80;;;;;;;7.71;70.85;95383.56;5087607;28;20635;-65
2021/01/30 01:52:26;;;;;;;1.77;0.70;;;;;;;7.53;70.97;95392.56;5086276;28;20419;-67
2021/01/30 01:54:59;;;;;;;1.63;0.90;;;;;;;7.50;71.94;95403.34;5094663;28;20412;-66
2021/01/30 01:57:25;;;;;;;1.23;0.60;;;;;;;7.29;72.65;95400.59;5085465;28;20477;-66
2021/01/30 01:59:54;;;;;;;5.27;0.93;;;;;;;7.66;71.25;95389.31;5095076;28;20466;-66
2021/01/30 02:02:20;;;;;;;2.50;0.60;;;;;;;7.47;72.03;95390.66;5095428;28;20438;-65
2021/01/30 02:05:03;;;;;;;3.07;0.80;;;;;;;7.25;72.57;95396.72;5094695;28;20415;-67
2021/01/30 02:07:29;;;;;;;1.67;0.77;;;;;;;7.35;72.03;95387.66;5085443;28;20447;-66
2021/01/30 02:09:57;;;;;;;0.97;0.67;;;;;;;7.50;72.00;95382.47;5093829;28;20978;-67
2021/01/30 02:12:26;;;;;;;5.50;0.87;;;;;;;7.23;72.55;95387.28;5090274;28;20418;-66
2021/01/30 02:14:52;;;;;;;0.87;0.60;;;;;;;7.53;71.20;95383.91;5084200;28;20443;-66
2021/01/30 02:17:31;;;;;;;1.27;0.60;;;;;;;7.47;72.13;95376.81;5086711;28;20507;-67
2021/01/30 02:20:27;;;;;;;0.90;0.63;;;;;;;7.59;70.58;95377.19;5095034;28;20458;-67
2021/01/30 02:23:24;;;;;;;1.57;0.60;;;;;;;7.62;71.13;95371.63;5093474;28;20577;-66
2021/01/30 02:26:25;;;;;;;1.30;0.57;;;;;;;7.60;71.04;95368.38;5094720;28;20443;-68
2021/01/30 02:28:53;;;;;;;0.77;0.50;;;;;;;7.28;72.50;95378.13;5075350;28;20472;-66
2021/01/30 02:31:31;;;;;;;0.80;0.60;;;;;;;7.15;73.24;95368.28;5092754;28;20420;-67
2021/01/30 02:33:59;;;;;;;1.50;0.67;;;;;;;7.26;72.02;95367.84;5083255;28;20481;-67
2021/01/30 02:36:31;;;;;;;1.10;0.70;;;;;;;7.18;72.11;95366.13;5069038;28;20424;-66
2021/01/30 02:39:28;;;;;;;0.90;0.60;;;;;;;7.50;71.40;95360.81;5088844;28;20440;-68
2021/01/30 02:42:02;;;;;;;0.80;0.53;;;;;;;7.22;71.90;95362.19;5053199;28;20427;-68
2021/01/30 02:44:32;;;;;;;0.70;0.50;;;;;;;7.51;71.61;95347.59;5066562;28;20455;-65
2021/01/30 02:46:58;;;;;;;1.30;0.60;;;;;;;7.32;71.53;95350.72;5065203;28;20427;-65
2021/01/30 02:49:32;;;;;;;0.77;0.57;;;;;;;6.98;72.99;95352.81;5091825;28;20451;-66
2021/01/30 02:52:11;;;;;;;1.00;0.60;;;;;;;7.06;72.81;95357.94;5091309;28;20197;-66
2021/01/30 02:54:37;;;;;;;1.40;0.60;;;;;;;7.09;72.67;95359.38;5074908;28;20519;-66
2021/01/30 02:57:07;;;;;;;2.77;0.60;;;;;;;7.26;72.15;95360.03;5085763;28;20515;-66
2021/01/30 02:59:33;;;;;;;1.60;0.70;;;;;;;7.67;70.53;95348.44;5084422;28;20531;-68
2021/01/30 03:01:59;;;;;;;1.10;0.50;;;;;;;7.97;69.22;95354.44;5073362;28;20435;-67
2021/01/30 03:04:26;;;;;;;2.97;0.70;;;;;;;7.69;69.37;95336.81;5102649;28;20424;-67
2021/01/30 03:07:01;;;;;;;0.97;0.63;;;;;;;7.73;69.88;95339.09;5106958;28;20208;-68
2021/01/30 03:09:35;;;;;;;0.90;0.70;;;;;;;7.94;69.10;95340.97;5093784;28;20507;-66
2021/01/30 03:12:07;;;;;;;1.00;0.70;;;;;;;7.80;69.41;95332.97;5080369;28;20429;-68
2021/01/30 03:14:37;;;;;;;1.00;0.60;;;;;;;7.97;68.64;95327.53;5092257;28;20899;-67
2021/01/30 03:17:03;;;;;;;2.30;1.07;;;;;;;7.66;69.79;95339.78;5092719;28;20420;-68
2021/01/30 03:19:31;;;;;;;1.27;0.63;;;;;;;8.00;69.16;95337.63;5092261;28;20466;-66
2021/01/30 03:22:04;;;;;;;1.63;0.60;;;;;;;8.04;68.62;95332.84;5090924;28;20430;-67
2021/01/30 03:24:30;;;;;;;1.93;0.90;;;;;;;7.72;69.68;95332.25;5088461;28;20554;-66
2021/01/30 03:26:56;;;;;;;1.20;0.70;;;;;;;8.02;68.67;95327.81;5065818;28;20929;-67
2021/01/30 03:29:22;;;;;;;1.00;0.90;;;;;;;7.84;69.37;95331.59;5092137;28;20505;-67
2021/01/30 03:31:48;;;;;;;2.70;1.00;;;;;;;8.02;68.74;95329.59;5092668;28;20185;-66
2021/01/30 03:34:15;;;;;;;1.30;0.77;;;;;;;7.73;69.53;95341.69;5085978;28;20182;-67
2021/01/30 03:36:41;;;;;;;2.10;0.70;;;;;;;7.76;69.27;95344.75;5089574;28;20419;-66
2021/01/30 03:39:09;;;;;;;1.00;0.70;;;;;;;7.87;69.86;95329.63;5092586;28;20466;-67
2021/01/30 03:41:35;;;;;;;0.93;0.70;;;;;;;7.44;70.92;95338.06;5089942;28;20201;-67
2021/01/30 03:44:01;;;;;;;1.83;0.67;;;;;;;7.91;69.37;95330.88;5092965;28;21129;-66
2021/01/30 03:46:26;;;;;;;1.10;0.70;;;;;;;7.94;69.82;95320.09;5092476;28;20201;-67
2021/01/30 03:48:52;;;;;;;1.80;0.63;;;;;;;7.65;71.21;95326.94;5091687;28;20707;-65
2021/01/30 03:51:18;;;;;;;1.50;0.70;;;;;;;7.35;71.52;95316.47;5092928;28;20197;-68
2021/01/30 03:53:43;;;;;;;2.03;0.80;;;;;;;7.45;72.25;95317.03;5092653;28;20193;-68
2021/01/30 03:56:10;;;;;;;2.40;0.80;;;;;;;7.76;71.46;95318.66;5091171;28;20244;-67
2021/01/30 03:58:40;;;;;;;1.23;0.90;;;;;;;7.43;71.53;95324.25;5093144;28;20344;-67
2021/01/30 04:01:06;;;;;;;0.90;0.67;;;;;;;7.64;71.78;95322.72;5083752;28;20423;-66
2021/01/30 04:03:32;;;;;;;1.00;0.60;;;;;;;7.32;72.71;95322.03;5092458;28;20507;-67
2021/01/30 04:05:58;;;;;;;2.50;0.70;;;;;;;7.41;72.07;95310.56;5081714;28;20562;-66
2021/01/30 04:08:24;;;;;;;1.17;0.60;;;;;;;7.19;72.78;95313.03;5085048;28;21224;-66
2021/01/30 04:10:50;;;;;;;1.20;0.70;;;;;;;7.44;71.72;95307.59;5088466;28;20197;-67
2021/01/30 04:13:18;;;;;;;1.03;0.63;;;;;;;7.31;72.20;95303.00;5092491;28;20182;-67
2021/01/30 04:15:44;;;;;;;2.30;0.70;;;;;;;7.52;71.62;95302.31;5085211;28;20420;-68
2021/01/30 04:18:12;;;;;;;2.20;1.00;;;;;;;7.67;70.53;95293.69;5088952;28;20506;-66
2021/01/30 04:20:38;;;;;;;0.80;0.67;;;;;;;7.56;70.91;95288.91;5084500;28;20420;-68
2021/01/30 04:23:05;;;;;;;0.90;0.60;;;;;;;7.10;72.28;95287.28;5089072;28;20933;-66
2021/01/30 04:25:31;;;;;;;1.57;0.83;;;;;;;7.78;70.65;95280.19;5092595;28;20521;-66
2021/01/30 04:27:58;;;;;;;3.77;0.80;;;;;;;7.80;69.83;95280.81;5092121;28;20505;-66
2021/01/30 04:30:26;;;;;;;2.30;0.80;;;;;;;7.37;71.75;95283.25;5091404;28;20443;-66
2021/01/30 04:32:52;;;;;;;2.70;1.00;;;;;;;7.05;73.25;95282.59;5090851;28;20428;-67
2021/01/30 04:35:20;;;;;;;2.03;0.87;;;;;;;7.27;71.79;95283.50;5092915;28;20419;-67
2021/01/30 04:37:46;;;;;;;5.23;0.80;;;;;;;7.16;72.22;95284.75;5090863;28;20914;-68
2021/01/30 04:40:37;;;;;;;3.47;0.80;;;;;;;7.03;72.66;95277.53;5093082;28;20475;-67
2021/01/30 04:43:10;;;;;;;2.77;0.83;;;;;;;7.28;71.99;95277.31;5090872;28;20228;-68
2021/01/30 04:45:44;;;;;;;2.77;0.90;;;;;;;7.14;71.95;95273.72;5092079;28;20435;-65
2021/01/30 04:48:30;;;;;;;2.03;0.90;;;;;;;7.12;73.10;95277.50;5082991;28;20481;-66
2021/01/30 04:51:01;;;;;;;1.53;0.80;;;;;;;7.43;71.81;95272.13;5091710;28;20439;-66
2021/01/30 04:53:29;;;;;;;3.53;1.03;;;;;;;7.32;72.31;95272.53;5092710;28;20424;-65
2021/01/30 04:56:05;;;;;;;3.20;1.00;;;;;;;7.49;70.80;95258.34;5092135;28;20428;-66
2021/01/30 04:58:59;;;;;;;4.77;1.00;;;;;;;7.58;70.71;95248.63;5090807;28;20444;-67
2021/01/30 05:01:33;;;;;;;5.87;0.80;;;;;;;7.66;70.62;95253.75;5086618;28;20420;-66
2021/01/30 05:04:15;;;;;;;4.23;1.20;;;;;;;6.98;72.65;95263.44;5093540;28;20439;-67
2021/01/30 05:07:02;;;;;;;3.57;1.00;;;;;;;7.64;69.67;95257.53;5098818;28;20528;-69
2021/01/30 05:09:37;;;;;;;4.00;1.00;;;;;;;7.31;70.64;95252.72;5098918;28;20456;-66
2021/01/30 05:12:08;;;;;;;3.50;1.20;;;;;;;7.23;70.92;95251.00;5096488;28;20427;-66
2021/01/30 05:14:39;;;;;;;5.13;1.10;;;;;;;7.68;69.11;95248.38;5100085;28;20428;-66
2021/01/30 05:17:26;;;;;;;5.10;1.20;;;;;;;7.40;69.86;95249.00;5100357;28;20416;-67
2021/01/30 05:19:58;;;;;;;4.43;1.20;;;;;;;7.57;69.13;95247.03;5100899;28;20439;-66
2021/01/30 05:22:32;;;;;;;5.73;0.90;;;;;;;7.48;69.17;95237.69;5104084;28;20496;-66
2021/01/30 05:24:58;;;;;;;4.03;1.30;;;;;;;7.42;68.35;95239.22;5101056;28;20431;-64
2021/01/30 05:27:42;;;;;;;6.43;1.40;;;;;;;7.55;68.63;95230.75;5099296;28;20490;-65
2021/01/30 05:30:13;;;;;;;13.53;1.40;;;;;;;7.34;69.46;95228.88;5091223;28;20201;-67
2021/01/30 05:33:13;;;;;;;3.83;1.27;;;;;;;7.77;67.17;95226.41;5090857;28;20433;-65
2021/01/30 05:35:45;;;;;;;6.43;1.40;;;;;;;7.96;65.98;95232.00;5086742;28;20531;-66
2021/01/30 05:38:31;;;;;;;9.53;1.30;;;;;;;7.49;67.85;95227.06;5084153;28;20416;-67
2021/01/30 05:41:01;;;;;;;10.37;1.53;;;;;;;7.42;67.81;95223.59;5089509;28;20432;-64
2021/01/30 05:43:57;;;;;;;6.10;1.40;;;;;;;7.79;66.89;95232.25;5084315;28;20946;-67
2021/01/30 05:46:25;;;;;;;6.33;1.80;;;;;;;7.53;67.71;95227.50;5090932;28;20427;-68
2021/01/30 05:48:53;;;;;;;11.40;1.80;;;;;;;7.29;67.79;95231.22;5084475;28;20551;-66
2021/01/30 05:51:37;;;;;;;7.47;1.90;;;;;;;7.31;68.20;95229.25;5073776;28;20428;-65
2021/01/30 05:54:04;;;;;;;9.07;1.67;;;;;;;6.95;69.02;95227.31;5089973;28;20458;-66
2021/01/30 05:56:41;;;;;;;3.47;1.57;;;;;;;7.30;67.97;95219.81;5091001;28;20420;-66
2021/01/30 05:59:18;;;;;;;8.90;1.67;;;;;;;7.18;68.19;95222.84;5073822;28;20481;-67
2021/01/30 06:01:44;;;;;;;4.80;1.40;;;;;;;6.94;68.84;95218.72;5090912;28;20412;-69
2021/01/30 06:04:11;;;;;;;10.60;1.83;;;;;;;7.19;67.99;95214.03;5091604;28;20439;-69
2021/01/30 06:06:56;;;;;;;3.10;1.03;;;;;;;7.21;68.06;95204.25;5089984;28;21041;-65
2021/01/30 06:09:36;;;;;;;7.13;1.50;;;;;;;7.48;67.38;95207.22;5082168;28;20826;-68
2021/01/30 06:12:30;;;;;;;7.00;1.60;;;;;;;6.74;69.42;95211.41;5091153;28;20456;-67
2021/01/30 06:15:14;;;;;;;8.03;1.60;;;;;;;7.12;68.12;95205.34;5070663;28;20429;-66
2021/01/30 06:17:40;;;;;;;7.13;1.43;;;;;;;7.07;68.20;95205.06;5090450;28;20419;-66
2021/01/30 06:20:29;;;;;;;9.13;1.70;;;;;;;6.93;68.63;95203.28;5089986;28;20450;-67
2021/01/30 06:23:13;;;;;;;8.20;2.20;;;;;;;7.05;68.58;95202.66;5088590;28;20531;-67
2021/01/30 06:25:41;;;;;;;7.77;1.70;;;;;;;7.22;67.78;95198.06;5075806;28;20453;-66
2021/01/30 06:28:22;;;;;;;6.00;1.50;;;;;;;6.93;68.61;95195.47;5094598;28;20481;-66
2021/01/30 06:30:48;;;;;;;4.60;1.63;;;;;;;7.43;67.09;95190.50;5093747;28;20426;-67
2021/01/30 06:33:24;;;;;;;12.33;2.17;;;;;;;7.37;67.26;95192.03;5094035;28;20481;-66
2021/01/30 06:35:54;;;;;;;10.33;1.57;;;;;;;7.47;66.50;95196.97;5095104;28;20415;-67
2021/01/30 06:38:26;;;;;;;7.00;1.60;;;;;;;7.44;66.93;95192.13;5088370;28;20968;-66
2021/01/30 06:40:58;;;;;;;10.57;1.97;;;;;;;7.00;68.33;95186.72;5093732;28;20910;-68
2021/01/30 06:43:30;;;;;;;17.80;1.93;;;;;;;7.27;67.10;95178.47;5093972;28;20867;-67
2021/01/30 06:46:15;;;;;;;10.87;1.33;;;;;;;7.28;67.81;95185.31;5094777;28;20403;-66
2021/01/30 06:48:45;;;;;;;6.80;1.50;;;;;;;7.33;67.07;95190.78;5094868;28;20574;-66
2021/01/30 06:51:23;;;;;;;12.37;2.20;;;;;;;7.44;67.50;95187.69;5095007;28;20465;-66
2021/01/30 06:53:49;;;;;;;8.53;1.90;;;;;;;7.36;67.28;95182.59;5094662;28;20450;-68
2021/01/30 06:56:25;;;;;;;6.47;1.53;;;;;;;7.71;65.67;95187.22;5094211;28;20506;-66
2021/01/30 06:59:01;;;;;;;9.40;1.90;;;;;;;7.36;67.28;95187.81;5089920;28;20480;-65
2021/01/30 07:01:39;;;;;;;9.40;1.97;;;;;;;7.11;68.04;95193.31;5093156;28;20422;-66
2021/01/30 07:04:24;;;;;;;10.87;2.23;;;;;;;7.11;68.00;95185.50;5093449;28;20420;-66
2021/01/30 07:07:13;;;;;;;7.43;2.07;;;;;;;7.30;67.44;95183.34;5094108;28;20431;-65
2021/01/30 07:09:50;;;;;;;7.70;1.80;;;;;;;7.39;67.28;95190.06;5093653;28;20447;-67
2021/01/30 07:12:45;;;;;;;10.80;2.60;;;;;;;7.62;66.06;95176.91;5093786;28;20423;-68
2021/01/30 07:15:20;;;;;;;9.80;2.13;;;;;;;7.86;65.25;95181.97;5092559;28;20424;-66
2021/01/30 07:17:58;;;;;;;6.43;2.40;;;;;;;8.15;64.66;95183.66;5093429;28;20533;-65
2021/01/30 07:20:54;;;;;;;10.50;2.03;;;;;;;8.05;65.17;95180.53;5091743;28;20531;-67
2021/01/30 07:23:41;;;;;;;6.23;2.10;;;;;;;8.18;64.76;95185.09;5082584;28;20415;-65
2021/01/30 07:26:31;;;;;;;12.63;2.37;;;;;;;8.21;64.49;95176.88;5092073;28;20442;-67
2021/01/30 07:29:10;;;;;;;9.63;2.57;;;;;;;8.32;64.31;95175.56;5092760;28;20475;-66
2021/01/30 07:31:39;;;;;;;20.80;6.43;;;;;;;8.45;67.88;95173.88;5092213;28;20427;-63
2021/01/30 07:34:14;;;;;;;8.73;1.53;;;;;;;10.29;64.98;95177.94;5092360;28;20528;-61
2021/01/30 07:36:50;;;;;;;5.53;1.97;;;;;;;12.24;58.27;95164.34;5088395;28;20452;-63
2021/01/30 07:39:28;;;;;;;5.50;1.80;;;;;;;13.37;57.30;95157.25;5091889;28;20972;-63
2021/01/30 07:42:01;;;;;;;7.97;1.87;;;;;;;13.83;50.88;95151.69;5093481;28;20424;-62
2021/01/30 07:44:34;;;;;;;8.80;1.70;;;;;;;13.60;49.79;95152.38;5092390;28;20432;-64
2021/01/30 07:47:12;;;;;;;8.00;1.70;;;;;;;13.38;54.71;95155.44;5091922;28;20444;-63
2021/01/30 07:49:41;;;;;;;5.37;1.80;;;;;;;14.11;49.53;95152.94;5091058;28;20455;-62
2021/01/30 07:52:13;;;;;;;7.23;2.20;;;;;;;10.59;55.24;95154.81;5092056;28;20427;-63
2021/01/30 07:54:51;;;;;;;10.13;2.10;;;;;;;10.35;56.33;95156.22;5067335;28;20427;-68
2021/01/30 07:57:28;;;;;;;8.90;2.00;;;;;;;9.30;59.34;95143.47;5086211;28;20416;-66
2021/01/30 08:00:08;;;;;;;9.43;2.43;;;;;;;9.25;60.10;95144.06;5092830;28;20869;-67
2021/01/30 08:03:01;;;;;;;11.17;3.17;;;;;;;8.57;62.83;95157.72;5093082;28;20414;-69
2021/01/30 08:05:54;;;;;;;7.97;1.97;;;;;;;8.74;61.73;95143.38;5091342;28;20484;-66
2021/01/30 08:08:44;;;;;;;13.30;2.97;;;;;;;8.03;64.60;95146.00;5091919;28;20554;-67
2021/01/30 08:11:23;;;;;;;9.57;2.27;;;;;;;7.97;65.13;95143.16;5085110;28;20400;-67
2021/01/30 08:14:26;;;;;;;10.70;3.10;;;;;;;8.51;63.41;95127.16;5093487;28;20996;-66
2021/01/30 08:16:58;;;;;;;9.43;2.13;;;;;;;8.03;65.14;95135.56;5092776;28;20423;-70
2021/01/30 08:19:42;;;;;;;10.40;2.40;;;;;;;8.12;64.99;95124.81;5093052;28;20471;-67
2021/01/30 08:22:43;;;;;;;8.57;2.17;;;;;;;8.23;63.96;95128.75;5091013;28;20412;-66
2021/01/30 08:25:16;;;;;;;12.83;2.50;;;;;;;8.14;64.87;95130.66;5083885;28;20462;-66
2021/01/30 08:27:46;;;;;;;7.43;2.20;;;;;;;7.99;64.99;95137.75;5090470;28;20452;-65
2021/01/30 08:30:17;;;;;;;11.00;1.90;;;;;;;8.14;65.12;95138.50;5090937;28;20431;-66
2021/01/30 08:33:04;;;;;;;12.43;2.30;;;;;;;8.25;63.75;95125.94;5091135;28;21030;-66
2021/01/30 08:35:41;;;;;;;8.93;2.47;;;;;;;8.70;63.25;95130.91;5091126;28;20473;-66
2021/01/30 08:38:17;;;;;;;11.23;3.33;;;;;;;9.05;62.54;95123.88;5091415;28;20445;-66
2021/01/30 08:40:53;;;;;;;10.57;3.30;;;;;;;9.06;62.51;95120.28;5092099;28;20418;-66
2021/01/30 08:43:57;;;;;;;10.83;3.00;;;;;;;9.17;61.82;95116.28;5083649;28;20519;-66
2021/01/30 08:46:23;;;;;;;6.37;2.13;;;;;;;9.18;61.45;95119.72;5100432;27;20422;-68
2021/01/30 08:49:13;;;;;;;10.57;2.47;;;;;;;9.26;61.36;95122.16;5113363;27;20836;-67
2021/01/30 08:51:40;;;;;;;11.80;3.27;;;;;;;9.20;61.68;95125.53;5122731;27;20192;-67
2021/01/30 08:54:31;;;;;;;9.10;2.70;;;;;;;9.27;61.92;95125.56;5113322;27;21133;-67
2021/01/30 08:56:57;;;;;;;9.40;2.50;;;;;;;9.34;61.12;95123.81;5130028;27;20418;-68
2021/01/30 08:59:45;;;;;;;14.13;2.33;;;;;;;8.99;62.29;95127.25;5110708;27;20445;-66
2021/01/30 09:02:34;;;;;;;9.80;2.53;;;;;;;9.30;61.80;95128.63;5095942;27;20495;-67
2021/01/30 09:05:06;;;;;;;7.00;2.33;;;;;;;9.34;62.00;95132.44;5057976;27;20428;-65
2021/01/30 09:07:48;;;;;;;15.30;2.93;;;;;;;9.45;61.13;95122.44;5102101;27;20475;-68
2021/01/30 09:10:22;;;;;;;16.13;2.50;;;;;;;9.50;61.15;95128.69;5100149;27;20453;-67
2021/01/30 09:13:06;;;;;;;12.63;3.13;;;;;;;9.38;61.52;95125.81;5102676;28;20452;-66
2021/01/30 09:15:38;;;;;;;13.20;2.70;;;;;;;9.29;61.99;95129.63;5131207;27;20459;-67
2021/01/30 09:18:22;;;;;;;9.83;2.60;;;;;;;9.59;61.17;95123.28;5092879;28;20553;-66
2021/01/30 09:20:51;;;;;;;13.20;2.90;;;;;;;9.11;62.75;95116.25;5089863;28;20431;-68
2021/01/30 09:23:41;;;;;;;6.70;2.30;;;;;;;9.40;61.40;95112.53;5092179;28;20485;-66
2021/01/30 09:26:19;;;;;;;11.53;2.60;;;;;;;9.61;61.67;95111.59;5091679;28;20438;-68
2021/01/30 09:28:45;;;;;;;7.17;2.60;;;;;;;9.72;61.27;95105.00;5091920;28;20550;-66
2021/01/30 09:31:20;;;;;;;11.77;2.17;;;;;;;9.59;61.19;95108.38;5089931;28;20506;-67
2021/01/30 09:34:06;;;;;;;14.70;4.00;;;;;;;8.61;64.29;95098.91;5091301;28;20222;-68
2021/01/30 09:36:42;;;;;;;10.83;2.50;;;;;;;9.12;62.99;95103.00;5091863;28;20506;-67
2021/01/30 09:39:30;;;;;;;6.27;2.53;;;;;;;9.63;61.64;95103.59;5069249;28;20525;-66
2021/01/30 09:42:08;;;;;;;13.53;2.93;;;;;;;9.62;60.96;95102.75;5091432;28;20431;-67
2021/01/30 09:44:34;;;;;;;12.97;2.57;;;;;;;8.73;63.67;95105.22;5092165;28;20857;-67
2021/01/30 09:47:04;;;;;;;23.93;6.30;;;;;;;8.87;63.63;95100.06;5092163;28;20427;-65
2021/01/30 09:49:37;;;;;;;13.03;3.20;;;;;;;9.02;62.74;95107.75;5092152;28;20463;-66
2021/01/30 09:52:04;;;;;;;9.63;2.30;;;;;;;9.20;62.90;95104.63;5052102;28;20945;-67
2021/01/30 09:54:30;;;;;;;9.30;2.70;;;;;;;9.53;61.70;95109.97;5064732;28;20413;-68
2021/01/30 09:57:06;;;;;;;13.43;2.70;;;;;;;9.17;62.83;95107.66;5092808;28;20934;-67
2021/01/30 09:59:33;;;;;;;12.00;2.50;;;;;;;8.90;64.67;95099.69;5091944;28;20193;-67
2021/01/30 10:02:18;;;;;;;9.50;3.40;;;;;;;9.20;63.64;95102.00;5095820;28;20523;-68
2021/01/30 10:04:44;;;;;;;8.70;2.20;;;;;;;9.28;63.18;95099.25;5098108;28;20469;-70
2021/01/30 10:07:15;;;;;;;12.40;2.17;;;;;;;9.10;63.84;95093.72;5097793;28;20493;-68
2021/01/30 10:09:46;;;;;;;14.27;2.73;;;;;;;9.16;64.18;95104.22;5095736;28;20459;-68
2021/01/30 10:12:15;;;;;;;19.50;3.77;;;;;;;9.25;64.89;95091.78;5092519;28;20420;-67
2021/01/30 10:14:46;;;;;;;13.67;2.77;;;;;;;9.32;65.72;95089.19;5094467;28;20423;-67
2021/01/30 10:17:16;;;;;;;8.10;2.90;;;;;;;9.40;65.43;95088.22;5094463;28;20870;-66
2021/01/30 10:19:42;;;;;;;11.23;3.10;;;;;;;8.40;68.41;95084.91;5096182;28;20439;-67
2021/01/30 10:22:18;;;;;;;12.57;2.67;;;;;;;8.05;69.60;95087.44;5083374;28;20420;-66
2021/01/30 10:24:45;;;;;;;13.30;3.20;;;;;;;8.71;69.59;95081.09;5092577;28;20423;-69
2021/01/30 10:27:19;;;;;;;8.30;2.73;;;;;;;9.26;67.75;95076.94;5093989;28;20419;-68
2021/01/30 10:29:45;;;;;;;9.10;2.97;;;;;;;8.86;69.23;95072.31;5093731;28;20544;-66
2021/01/30 10:32:19;;;;;;;16.67;4.23;;;;;;;8.91;68.87;95075.19;5095686;28;20531;-68
2021/01/30 10:34:48;;;;;;;14.40;3.50;;;;;;;8.43;71.03;95071.47;5094833;28;20510;-66
2021/01/30 10:37:17;;;;;;;13.73;2.70;;;;;;;9.02;69.11;95069.41;5098013;28;20412;-67
2021/01/30 10:40:00;;;;;;;15.20;2.70;;;;;;;8.31;71.03;95062.56;5077834;28;21014;-67
2021/01/30 10:42:30;;;;;;;13.43;3.90;;;;;;;8.37;71.15;95067.00;5091191;28;20434;-66
2021/01/30 10:45:20;;;;;;;10.20;2.50;;;;;;;8.80;70.78;95058.25;5095767;28;20501;-65
2021/01/30 10:47:51;;;;;;;7.83;2.50;;;;;;;8.89;70.99;95064.13;5097829;28;20451;-67
2021/01/30 10:50:23;;;;;;;13.20;3.33;;;;;;;8.78;71.21;95060.22;5100304;28;20439;-68
2021/01/30 10:52:49;;;;;;;15.93;3.30;;;;;;;9.15;70.41;95057.38;5092844;28;20427;-67
2021/01/30 10:55:31;;;;;;;22.03;3.50;;;;;;;9.21;69.75;95051.34;5097147;28;20447;-68
2021/01/30 10:58:16;;;;;;;23.70;3.90;;;;;;;9.21;70.02;95049.56;5069845;28;20420;-68
2021/01/30 11:00:43;;;;;;;14.60;3.33;;;;;;;9.27;69.33;95047.16;5093665;28;20443;-66
2021/01/30 11:03:23;;;;;;;15.10;3.30;;;;;;;9.36;69.45;95041.56;5093908;28;20463;-65
2021/01/30 11:05:49;;;;;;;19.90;3.20;;;;;;;9.57;69.13;95044.22;5094414;28;20428;-67
2021/01/30 11:08:29;;;;;;;15.87;3.90;;;;;;;9.44;69.93;95045.00;5094493;28;20959;-68
2021/01/30 11:11:06;;;;;;;17.10;3.67;;;;;;;9.00;70.55;95039.25;5093893;28;20434;-68
2021/01/30 11:13:38;;;;;;;19.60;3.50;;;;;;;9.11;70.66;95037.88;5093892;28;20451;-66
2021/01/30 11:16:10;;;;;;;18.67;3.37;;;;;;;9.54;69.66;95034.97;5094430;28;20432;-67
2021/01/30 11:18:47;;;;;;;12.43;2.80;;;;;;;9.83;68.30;95025.13;5092601;28;20537;-69
2021/01/30 11:21:34;;;;;;;12.83;3.80;;;;;;;9.78;68.64;95032.78;5086449;28;20424;-69
2021/01/30 11:24:26;;;;;;;10.70;3.20;;;;;;;10.13;68.00;95016.88;5094217;28;20427;-67
2021/01/30 11:26:52;;;;;;;11.50;3.83;;;;;;;10.27;67.31;95005.38;5093713;28;20424;-67
2021/01/30 11:29:33;;;;;;;14.33;3.40;;;;;;;10.29;66.92;95005.97;5092752;28;20562;-67
2021/01/30 11:32:00;;;;;;;15.93;4.87;;;;;;;10.28;67.25;95001.75;5096091;28;20182;-68
2021/01/30 11:34:26;;;;;;;12.93;2.70;;;;;;;9.90;67.61;95001.56;5096991;28;20416;-68
2021/01/30 11:36:53;;;;;;;16.07;4.10;;;;;;;10.24;66.73;94992.69;5092900;28;20430;-68
2021/01/30 11:39:35;;;;;;;21.20;3.90;;;;;;;10.44;65.26;94986.66;5094184;28;20475;-68
2021/01/30 11:42:00;;;;;;;13.50;2.90;;;;;;;9.98;66.20;94989.09;5089153;28;20424;-67
2021/01/30 11:44:26;;;;;;;10.07;2.47;;;;;;;10.33;65.79;94979.41;5093655;28;20527;-68
2021/01/30 11:46:53;;;;;;;15.53;3.90;;;;;;;10.38;66.18;94969.94;5090605;28;20188;-66
2021/01/30 11:49:19;;;;;;;11.63;3.07;;;;;;;10.48;66.23;94971.31;5090837;28;20937;-67
2021/01/30 11:51:45;;;;;;;10.37;3.00;;;;;;;10.49;64.88;94954.59;5093673;28;20531;-67
2021/01/30 11:54:11;;;;;;;12.57;3.30;;;;;;;10.22;65.71;94955.44;5093617;28;20416;-68
2021/01/30 11:56:38;;;;;;;14.90;4.80;;;;;;;10.09;64.94;94947.63;5092886;28;20287;-67
2021/01/30 11:59:04;;;;;;;11.33;3.93;;;;;;;10.30;65.54;94950.00;5092974;28;20538;-68
2021/01/30 12:01:31;;;;;;;12.43;3.10;;;;;;;10.52;65.16;94949.75;5093248;28;20447;-68
2021/01/30 12:04:01;;;;;;;10.33;2.90;;;;;;;10.68;64.15;94943.25;5092786;28;20951;-66
2021/01/30 12:06:26;;;;;;;9.00;2.20;;;;;;;10.45;64.10;94949.78;5088749;28;20871;-68
2021/01/30 12:08:53;;;;;;;7.20;2.50;;;;;;;10.58;63.86;94937.66;5091740;28;20464;-65